Time;durP1;ratioP1;P1;durP2;ratioP2;P2;SDS_P1;SDS_P2;PMS_P1;PMS_P2;Temp;Humidity;BMP_temperature;BMP_pressure;BME280_temperature;BME280_humidity;BME280_pressure;Samples;Min_cycle;Max_cycle;Signal;HPM_P1;HPM_P2
2022/01/31 00:00:06;;;;;;;3.90;3.65;;;;;;;-1.20;100.00;96886.41;1744377;82;20932;-66
2022/01/31 00:02:35;;;;;;;10.72;7.08;;;;;;;-1.19;100.00;96890.66;1744299;82;20888;-66
2022/01/31 00:05:04;;;;;;;62.43;28.15;;;;;;;-1.21;100.00;96872.98;1746742;82;20968;-67
2022/01/31 00:07:32;;;;;;;81.32;33.78;;;;;;;-1.19;100.00;96891.97;1746990;82;20889;-67
2022/01/31 00:09:59;;;;;;;152.90;57.50;;;;;;;-1.20;100.00;96895.12;1746804;82;21160;-67
2022/01/31 00:12:30;;;;;;;35.63;15.72;;;;;;;-1.23;100.00;96885.06;1747070;81;20893;-65
2022/01/31 00:15:00;;;;;;;66.50;28.20;;;;;;;-1.24;100.00;96887.43;1746240;82;24160;-67
2022/01/31 00:17:22;;;;;;;62.25;23.35;;;;;;;-1.22;100.00;96905.09;1746443;82;21533;-66
2022/01/31 00:19:49;;;;;;;23.77;11.78;;;;;;;-1.24;100.00;96901.91;1746812;82;20979;-66
2022/01/31 00:22:16;;;;;;;68.67;27.20;;;;;;;-1.26;100.00;96893.45;1746910;82;22100;-67
2022/01/31 00:24:43;;;;;;;9.98;6.03;;;;;;;-1.27;100.00;96885.30;1746745;82;20924;-67
2022/01/31 00:27:10;;;;;;;41.40;18.25;;;;;;;-1.28;100.00;96888.16;1716862;82;20924;-67
2022/01/31 00:29:37;;;;;;;6.35;4.25;;;;;;;-1.27;100.00;96901.58;1726137;82;20877;-67
2022/01/31 00:32:05;;;;;;;18.90;10.15;;;;;;;-1.28;100.00;96894.73;1747296;82;20893;-67
2022/01/31 00:34:32;;;;;;;23.47;12.53;;;;;;;-1.27;100.00;96903.72;1746947;81;22073;-67
2022/01/31 00:37:00;;;;;;;16.95;9.08;;;;;;;-1.30;100.00;96905.00;1746674;81;20955;-67
2022/01/31 00:39:33;;;;;;;39.40;17.95;;;;;;;-1.29;100.00;96897.89;1746843;82;20929;-68
2022/01/31 00:41:57;;;;;;;38.38;15.80;;;;;;;-1.27;100.00;96911.61;1747308;82;27088;-68
2022/01/31 00:44:37;;;;;;;8.33;5.67;;;;;;;-1.27;100.00;96902.89;1746764;82;20971;-68
2022/01/31 00:47:02;;;;;;;140.55;48.52;;;;;;;-1.25;100.00;96905.59;1746993;82;21395;-66
2022/01/31 00:52:00;;;;;;;102.22;36.03;;;;;;;-1.24;100.00;96906.38;1747214;82;21011;-67
2022/01/31 00:54:26;;;;;;;25.92;9.83;;;;;;;-1.23;100.00;96907.44;1746165;82;20908;-65
2022/01/31 00:56:53;;;;;;;47.08;19.50;;;;;;;-1.22;100.00;96902.47;1741873;82;21186;-64
2022/01/31 00:59:20;;;;;;;130.95;45.83;;;;;;;-1.20;100.00;96903.02;1711200;83;21031;-64
2022/01/31 01:01:48;;;;;;;98.30;33.15;;;;;;;-1.24;100.00;96904.54;1711956;83;26870;-64
2022/01/31 01:04:16;;;;;;;109.90;34.85;;;;;;;-1.24;100.00;96901.91;1716842;83;20923;-64
2022/01/31 01:06:43;;;;;;;34.58;13.55;;;;;;;-1.23;100.00;96911.91;1714916;83;20988;-66
2022/01/31 01:09:11;;;;;;;411.17;209.83;;;;;;;-1.23;100.00;96906.13;1712294;83;21040;-65
2022/01/31 01:11:39;;;;;;;34.43;21.23;;;;;;;-1.25;100.00;96906.91;1713540;83;21911;-65
2022/01/31 01:14:06;;;;;;;43.92;22.70;;;;;;;-1.26;100.00;96917.66;1713553;83;20976;-66
2022/01/31 01:16:34;;;;;;;;;;;;;;;-1.30;100.00;96919.47;1719111;82;20933;-67
2022/01/31 01:19:01;;;;;;;85.95;38.53;;;;;;;-1.33;100.00;96913.87;1727469;82;20119;-67
2022/01/31 01:21:28;;;;;;;61.53;27.02;;;;;;;-1.33;100.00;96917.30;1712442;83;21001;-68
2022/01/31 01:23:55;;;;;;;115.72;48.20;;;;;;;-1.31;100.00;96908.65;1679942;83;21144;-66
2022/01/31 01:26:21;;;;;;;68.12;26.68;;;;;;;-1.30;100.00;96923.91;1715824;83;20948;-67
2022/01/31 01:28:49;;;;;;;50.10;21.65;;;;;;;-1.28;100.00;96919.73;1712919;83;20893;-67
2022/01/31 01:31:15;;;;;;;37.38;16.75;;;;;;;-1.24;100.00;96918.22;1716456;83;20889;-65
2022/01/31 01:33:43;;;;;;;30.77;16.67;;;;;;;-1.22;100.00;96924.84;1712012;83;21496;-65
2022/01/31 01:36:10;;;;;;;51.20;23.57;;;;;;;-1.22;100.00;96917.47;1716289;83;21851;-68
2022/01/31 01:38:37;;;;;;;41.48;20.52;;;;;;;-1.20;100.00;96933.79;1712656;83;20917;-66
2022/01/31 01:41:05;;;;;;;61.05;25.20;;;;;;;-1.22;100.00;96930.63;1715155;82;20846;-67
2022/01/31 01:43:32;;;;;;;49.20;19.00;;;;;;;-1.24;100.00;96922.96;1712371;83;20964;-66
2022/01/31 01:46:00;;;;;;;142.93;49.65;;;;;;;-1.26;100.00;96931.61;1716873;82;20945;-67
2022/01/31 01:48:28;;;;;;;31.93;14.58;;;;;;;-1.30;100.00;96925.23;1716473;82;21143;-66
2022/01/31 01:50:57;;;;;;;25.57;11.70;;;;;;;-1.28;100.00;96931.58;1716940;83;28722;-67
2022/01/31 01:53:24;;;;;;;84.40;31.37;;;;;;;-1.30;100.00;96936.58;1679905;83;21000;-67
2022/01/31 01:55:53;;;;;;;6.35;4.80;;;;;;;-1.32;100.00;96937.33;1713425;83;21004;-68
2022/01/31 01:58:24;;;;;;;11.63;7.90;;;;;;;-1.36;100.00;96942.79;1762854;80;21000;-67
2022/01/31 02:01:02;;;;;;;3.70;3.50;;;;;;;-1.40;100.00;96946.14;1782208;80;21803;-64
2022/01/31 02:03:38;;;;;;;7.30;5.87;;;;;;;-1.52;100.00;96940.95;1780700;80;20919;-65
2022/01/31 02:06:06;;;;;;;30.23;20.85;;;;;;;-1.59;100.00;96943.77;1726419;82;21578;-65
2022/01/31 02:08:41;;;;;;;22.75;12.70;;;;;;;-1.62;100.00;96934.23;1748853;80;20995;-65
2022/01/31 02:11:12;;;;;;;8.05;5.90;;;;;;;-1.61;100.00;96935.31;1781719;80;21011;-67
2022/01/31 02:13:43;;;;;;;33.33;15.65;;;;;;;-1.65;100.00;96941.30;1781599;80;21842;-67
2022/01/31 02:16:28;;;;;;;24.12;11.65;;;;;;;-1.67;100.00;96932.84;1781984;80;21407;-68
2022/01/31 02:18:57;;;;;;;92.33;39.98;;;;;;;-1.68;100.00;96933.89;1781880;80;20953;-67
2022/01/31 02:21:37;;;;;;;25.23;10.80;;;;;;;-1.70;100.00;96933.32;1781908;80;20960;-67
2022/01/31 02:24:06;;;;;;;13.15;8.93;;;;;;;-1.71;100.00;96929.91;1782542;80;26444;-64
2022/01/31 02:26:35;;;;;;;20.70;9.93;;;;;;;-1.72;100.00;96901.99;1785504;80;21548;-66
2022/01/31 02:29:05;;;;;;;;;;;;;;;-1.69;100.00;96927.02;1783697;80;21446;-67
2022/01/31 02:31:33;;;;;;;35.08;15.28;;;;;;;-1.70;100.00;96933.32;1782231;80;20080;-69
2022/01/31 02:34:01;;;;;;;5.28;4.78;;;;;;;-1.68;100.00;96933.89;1744115;82;21542;-66
2022/01/31 02:36:28;;;;;;;27.50;14.00;;;;;;;-1.67;100.00;96931.52;1723224;82;20981;-66
2022/01/31 02:38:55;;;;;;;12.03;6.75;;;;;;;-1.65;100.00;96940.77;1736533;82;21173;-67
2022/01/31 02:41:22;;;;;;;5.67;4.45;;;;;;;-1.62;100.00;96938.17;1729238;82;20942;-67
2022/01/31 02:43:52;;;;;;;6.12;5.53;;;;;;;-1.62;100.00;96934.23;1718301;82;20861;-67
2022/01/31 02:46:20;;;;;;;6.45;5.37;;;;;;;-1.62;100.00;96937.66;1708730;84;20933;-66
2022/01/31 02:48:51;;;;;;;6.78;5.80;;;;;;;-1.66;100.00;96932.61;1757429;81;20942;-66
2022/01/31 02:51:22;;;;;;;5.97;5.05;;;;;;;-1.66;100.00;96933.92;1726504;82;21135;-67
2022/01/31 02:53:46;;;;;;;5.05;4.62;;;;;;;-1.68;100.00;96941.77;1733956;81;20933;-66
2022/01/31 02:56:13;;;;;;;4.17;3.87;;;;;;;-1.69;100.00;96936.22;1723790;82;20972;-63
2022/01/31 02:58:40;;;;;;;4.45;4.05;;;;;;;-1.71;100.00;96943.05;1713354;83;21028;-66
2022/01/31 03:01:07;;;;;;;4.28;4.00;;;;;;;-1.73;100.00;96956.95;1739791;82;20869;-68
2022/01/31 03:03:42;;;;;;;4.20;3.85;;;;;;;-1.75;100.00;96944.03;1744310;82;21178;-67
2022/01/31 03:06:08;;;;;;;5.42;4.97;;;;;;;-1.79;100.00;96940.30;1744699;82;20912;-67
2022/01/31 03:08:37;;;;;;;;;;;;;;;-1.81;100.00;96944.20;1746924;82;20936;-67
2022/01/31 03:11:15;;;;;;;3.98;3.77;;;;;;;-1.85;100.00;96960.95;1735922;82;20107;-68
2022/01/31 03:13:46;;;;;;;7.03;6.42;;;;;;;-1.87;100.00;96932.00;1735262;82;20968;-68
2022/01/31 03:16:13;;;;;;;4.17;3.98;;;;;;;-1.90;100.00;96946.41;1736353;82;21107;-67
2022/01/31 03:18:58;;;;;;;5.53;5.12;;;;;;;-1.93;100.00;96957.41;1744346;82;20973;-67
2022/01/31 03:21:24;;;;;;;3.80;3.60;;;;;;;-1.95;100.00;96957.64;1736577;82;20925;-66
2022/01/31 03:23:51;;;;;;;4.47;3.90;;;;;;;-1.94;100.00;96950.55;1744447;81;20976;-66
2022/01/31 03:26:19;;;;;;;3.80;3.50;;;;;;;-1.95;100.00;96947.13;1736081;82;21502;-67
2022/01/31 03:28:45;;;;;;;3.93;3.73;;;;;;;-1.96;100.00;96957.38;1744513;81;21482;-65
2022/01/31 03:31:13;;;;;;;4.95;4.58;;;;;;;-1.98;100.00;96958.64;1736260;82;21020;-65
2022/01/31 03:33:40;;;;;;;6.45;5.47;;;;;;;-2.00;100.00;96949.67;1736332;82;20941;-65
2022/01/31 03:36:07;;;;;;;4.65;4.25;;;;;;;-1.99;100.00;96952.56;1744388;82;20909;-66
2022/01/31 03:38:40;;;;;;;4.78;4.37;;;;;;;-1.96;100.00;96960.49;1719496;82;21011;-64
2022/01/31 03:41:04;;;;;;;4.92;4.60;;;;;;;-1.95;100.00;96956.84;1781490;80;21110;-68
2022/01/31 03:43:30;;;;;;;4.30;4.00;;;;;;;-1.93;100.00;96945.58;1744529;82;20975;-67
2022/01/31 03:45:57;;;;;;;4.28;3.98;;;;;;;-1.92;100.00;96952.42;1744494;82;20873;-69
2022/01/31 03:48:27;;;;;;;5.92;4.37;;;;;;;-1.92;100.00;96937.96;1744672;82;20976;-65
2022/01/31 03:50:56;;;;;;;3.60;3.40;;;;;;;-1.88;100.00;96968.54;1744337;82;20989;-64
2022/01/31 03:53:23;;;;;;;;;;;;;;;-1.87;100.00;96960.92;1724696;82;21889;-67
2022/01/31 03:55:50;;;;;;;4.42;4.03;;;;;;;-1.87;100.00;96966.97;1744522;82;20165;-62
2022/01/31 03:58:16;;;;;;;4.45;4.10;;;;;;;-1.86;100.00;96977.78;1732699;81;21009;-67
2022/01/31 04:00:48;;;;;;;4.17;3.87;;;;;;;-1.86;100.00;96975.16;1757273;81;20866;-68
2022/01/31 04:03:15;;;;;;;4.90;4.40;;;;;;;-1.87;100.00;96970.13;1761367;81;21027;-65
2022/01/31 04:05:42;;;;;;;4.95;4.50;;;;;;;-1.87;100.00;96971.44;1762483;81;21159;-67
2022/01/31 04:08:08;;;;;;;4.05;3.75;;;;;;;-1.89;100.00;96959.83;1762235;81;21020;-66
2022/01/31 04:10:36;;;;;;;4.55;4.25;;;;;;;-1.87;100.00;96976.69;1762494;81;20917;-68
2022/01/31 04:13:06;;;;;;;16.12;7.42;;;;;;;-1.86;100.00;96980.41;1762345;81;21048;-67
2022/01/31 04:15:35;;;;;;;13.58;10.30;;;;;;;-1.86;100.00;96986.98;1762421;81;21040;-66
2022/01/31 04:18:02;;;;;;;43.40;28.92;;;;;;;-1.87;100.00;96988.00;1760161;81;21478;-66
2022/01/31 04:20:30;;;;;;;23.65;11.35;;;;;;;-1.89;100.00;96985.33;1709140;84;20945;-68
2022/01/31 04:23:03;;;;;;;87.33;46.63;;;;;;;-1.93;100.00;96983.70;1709348;84;21459;-68
2022/01/31 04:25:42;;;;;;;38.73;23.95;;;;;;;-1.94;100.00;96986.03;1760579;81;20886;-65
2022/01/31 04:28:03;;;;;;;18.98;13.55;;;;;;;-1.97;100.00;96979.94;1759606;81;21007;-67
2022/01/31 04:30:37;;;;;;;26.15;16.75;;;;;;;-1.95;100.00;96991.03;1762440;81;21159;-68
2022/01/31 04:33:05;;;;;;;23.00;14.55;;;;;;;-1.97;100.00;96987.30;1711734;83;21039;-67
2022/01/31 04:35:32;;;;;;;37.10;16.95;;;;;;;-1.98;100.00;96989.67;1715371;83;21594;-67
2022/01/31 04:37:58;;;;;;;31.52;16.32;;;;;;;-1.97;100.00;96999.66;1712915;83;21498;-62
2022/01/31 04:40:26;;;;;;;11.48;8.83;;;;;;;-1.96;100.00;96986.78;1712520;83;21494;-67
2022/01/31 04:42:53;;;;;;;10.78;9.25;;;;;;;-1.92;100.00;96983.18;1716846;83;21542;-64
2022/01/31 04:45:21;;;;;;;16.80;11.15;;;;;;;-1.91;100.00;96993.97;1713184;83;21499;-64
2022/01/31 04:47:47;;;;;;;17.20;13.27;;;;;;;-1.92;100.00;96995.80;1710898;83;21463;-66
2022/01/31 04:50:15;;;;;;;17.70;12.60;;;;;;;-1.93;100.00;96995.53;1710725;83;21483;-67
2022/01/31 04:52:42;;;;;;;20.08;11.75;;;;;;;-1.93;100.00;96954.78;1710806;82;21582;-66
2022/01/31 04:55:11;;;;;;;8.63;7.73;;;;;;;-1.94;100.00;96999.18;1716737;83;21133;-68
2022/01/31 04:57:38;;;;;;;54.80;27.13;;;;;;;-1.94;100.00;96999.18;1712648;82;21263;-64
2022/01/31 05:00:06;;;;;;;46.23;24.47;;;;;;;-1.95;100.00;97006.27;1711093;81;21004;-67
2022/01/31 05:02:35;;;;;;;24.47;13.18;;;;;;;-1.96;100.00;97001.24;1712557;83;21515;-67
2022/01/31 05:05:03;;;;;;;20.63;11.47;;;;;;;-1.99;100.00;97003.83;1712086;83;21031;-64
2022/01/31 05:07:29;;;;;;;44.10;21.37;;;;;;;-1.98;100.00;97007.28;1714710;83;21234;-66
2022/01/31 05:09:56;;;;;;;21.75;13.70;;;;;;;-2.02;100.00;97008.25;1712874;83;20945;-65
2022/01/31 05:12:24;;;;;;;11.28;8.25;;;;;;;-2.04;100.00;97005.05;1716987;83;21526;-66
2022/01/31 05:14:51;;;;;;;16.55;10.65;;;;;;;-2.03;100.00;97009.30;1716568;82;21107;-62
2022/01/31 05:17:18;;;;;;;8.55;7.65;;;;;;;-2.07;100.00;97003.42;1716802;82;20953;-69
2022/01/31 05:19:44;;;;;;;7.87;7.00;;;;;;;-2.08;100.00;97010.52;1716600;83;21206;-64
2022/01/31 05:22:11;;;;;;;4.90;4.50;;;;;;;-2.05;100.00;97016.61;1712003;83;20917;-66
2022/01/31 05:24:37;;;;;;;9.40;7.05;;;;;;;-2.07;100.00;97021.82;1716730;82;20920;-65
2022/01/31 05:27:05;;;;;;;12.15;8.28;;;;;;;-2.08;100.00;97038.12;1716936;83;21565;-66
2022/01/31 05:29:32;;;;;;;8.00;6.28;;;;;;;-2.08;100.00;97046.49;1716973;83;21039;-65
2022/01/31 05:31:58;;;;;;;13.15;8.55;;;;;;;-2.11;100.00;97041.71;1712525;83;21720;-65
2022/01/31 05:34:25;;;;;;;27.70;12.60;;;;;;;-2.13;100.00;97024.06;1708252;83;20928;-69
2022/01/31 05:36:54;;;;;;;12.63;7.90;;;;;;;-2.14;100.00;97056.12;1708545;83;20908;-70
2022/01/31 05:39:20;;;;;;;26.57;22.50;;;;;;;-2.13;100.00;97062.16;1705848;82;20885;-68
2022/01/31 05:41:46;;;;;;;695.60;546.42;;;;;;;-2.17;100.00;97048.70;1691909;82;21027;-68
2022/01/31 05:44:13;;;;;;;49.45;42.95;;;;;;;-2.18;100.00;97066.80;1677793;85;21587;-65
2022/01/31 05:46:39;;;;;;;78.05;39.33;;;;;;;-2.20;100.00;97063.64;1677698;85;20962;-64
2022/01/31 05:49:08;;;;;;;80.65;39.13;;;;;;;-2.22;100.00;97070.42;1683093;83;21436;-65
2022/01/31 05:51:36;;;;;;;43.95;23.12;;;;;;;-2.24;100.00;97075.11;1714582;82;20991;-67
2022/01/31 05:54:03;;;;;;;;;;;;;;;-2.24;100.00;97077.73;1685701;83;21125;-65
2022/01/31 05:56:31;;;;;;;10.50;7.83;;;;;;;-2.24;100.00;97070.38;1684369;85;21178;-67
2022/01/31 05:58:57;;;;;;;9.48;8.50;;;;;;;-2.23;100.00;97078.53;1701574;82;20988;-69
2022/01/31 06:01:23;;;;;;;11.97;9.63;;;;;;;-2.23;100.00;97070.65;1735304;81;20990;-66
2022/01/31 06:03:50;;;;;;;6.25;5.70;;;;;;;-2.24;100.00;97081.67;1736319;82;21053;-69
2022/01/31 06:06:19;;;;;;;5.15;4.72;;;;;;;-2.28;100.00;97089.77;1749734;81;21498;-67
2022/01/31 06:08:48;;;;;;;13.88;11.88;;;;;;;-2.28;100.00;97080.56;1753132;81;21130;-66
2022/01/31 06:11:15;;;;;;;8.20;6.65;;;;;;;-2.25;100.00;97074.84;1719485;82;20972;-65
2022/01/31 06:13:45;;;;;;;6.55;5.05;;;;;;;-2.22;100.00;97065.17;1739697;81;21008;-68
2022/01/31 06:16:10;;;;;;;;;;;;;;;-2.17;100.00;97067.10;1730338;81;20885;-69
2022/01/31 06:18:37;;;;;;;23.55;11.00;;;;;;;-2.10;100.00;97084.06;1735462;82;20103;-69
2022/01/31 06:21:05;;;;;;;29.82;13.38;;;;;;;-2.08;100.00;97079.34;1735479;82;21075;-64
2022/01/31 06:23:32;;;;;;;37.63;16.93;;;;;;;-2.04;100.00;97076.55;1735615;82;21635;-67
2022/01/31 06:25:58;;;;;;;48.78;18.10;;;;;;;-2.05;100.00;97084.95;1716822;82;21504;-68
2022/01/31 06:28:25;;;;;;;38.00;16.55;;;;;;;-2.03;100.00;97068.96;1732316;81;21064;-69
2022/01/31 06:30:54;;;;;;;55.80;21.60;;;;;;;-2.02;100.00;97091.58;1735432;82;21067;-69
2022/01/31 06:33:21;;;;;;;36.70;16.82;;;;;;;-2.00;100.00;97086.37;1722259;81;21713;-68
2022/01/31 06:35:48;;;;;;;29.35;13.43;;;;;;;-1.98;100.00;97096.66;1745189;82;21602;-67
2022/01/31 06:38:14;;;;;;;43.42;16.40;;;;;;;-1.92;100.00;97104.91;1745365;82;21060;-66
2022/01/31 06:40:41;;;;;;;67.37;29.18;;;;;;;-1.80;100.00;97102.25;1745669;82;21041;-64
2022/01/31 06:43:09;;;;;;;35.30;18.23;;;;;;;-1.73;100.00;97093.70;1736300;82;21020;-69
2022/01/31 06:45:36;;;;;;;43.40;17.90;;;;;;;-1.72;100.00;97095.30;1733466;81;21138;-64
2022/01/31 06:48:05;;;;;;;60.43;25.32;;;;;;;-1.67;100.00;97113.80;1717971;81;20961;-63
2022/01/31 06:50:35;;;;;;;52.55;24.02;;;;;;;-1.59;100.00;97125.28;1721102;81;20981;-69
2022/01/31 06:53:05;;;;;;;45.30;19.77;;;;;;;-1.48;100.00;97117.05;1713946;83;21043;-69
2022/01/31 06:55:34;;;;;;;74.53;26.12;;;;;;;-1.31;100.00;97100.77;1763970;80;21047;-68
2022/01/31 06:58:02;;;;;;;46.73;17.85;;;;;;;-1.25;100.00;97110.88;1767305;80;21785;-67
2022/01/31 07:00:30;;;;;;;59.77;23.10;;;;;;;-1.34;100.00;97114.41;1784085;79;21038;-67
2022/01/31 07:03:00;;;;;;;47.13;16.12;;;;;;;-1.41;100.00;97112.44;1746469;82;21519;-66
2022/01/31 07:05:26;;;;;;;;;;;;;;;-1.45;100.00;97112.62;1749763;82;22315;-69
2022/01/31 07:08:00;;;;;;;64.53;28.70;;;;;;;-1.44;100.00;97117.39;1704815;82;20157;-64
2022/01/31 07:10:28;;;;;;;32.80;16.70;;;;;;;-1.37;100.00;97120.64;1745298;82;21209;-69
2022/01/31 07:12:58;;;;;;;29.42;12.78;;;;;;;-1.42;100.00;97115.30;1748662;81;20964;-68
2022/01/31 07:15:26;;;;;;;28.05;14.65;;;;;;;-1.43;100.00;97125.55;1737627;82;21009;-67
2022/01/31 07:17:54;;;;;;;14.80;8.15;;;;;;;-1.50;100.00;97121.73;1737668;82;21058;-66
2022/01/31 07:20:24;;;;;;;5.92;5.08;;;;;;;-1.41;100.00;97121.65;1737827;82;21036;-68
2022/01/31 07:22:56;;;;;;;15.53;10.55;;;;;;;-1.41;100.00;97136.64;1737566;82;21948;-66
2022/01/31 07:25:34;;;;;;;;;;;;;;;-1.42;100.00;97138.48;1740872;82;20975;-66
2022/01/31 07:27:49;;;;;;;16.25;13.70;;;;;;;-1.52;100.00;97133.01;1733152;82;20500;-68
2022/01/31 07:30:16;;;;;;;9.18;7.17;;;;;;;-1.52;100.00;97141.73;1734417;82;21010;-68
2022/01/31 07:32:42;;;;;;;6.83;6.22;;;;;;;-1.57;100.00;97136.86;1731087;82;20977;-68
2022/01/31 07:35:09;;;;;;;5.78;5.28;;;;;;;-1.53;100.00;97140.63;1731517;81;21156;-70
2022/01/31 07:37:36;;;;;;;7.87;5.22;;;;;;;-1.60;100.00;97068.95;1731259;82;20920;-66
2022/01/31 07:40:05;;;;;;;7.22;6.05;;;;;;;-1.61;100.00;97141.81;1778915;79;21486;-68
2022/01/31 07:42:32;;;;;;;8.90;7.55;;;;;;;-1.56;100.00;97146.38;1778665;79;20956;-71
2022/01/31 07:45:00;;;;;;;6.65;6.05;;;;;;;-1.51;100.00;97140.67;1778886;79;21011;-69
2022/01/31 07:47:27;;;;;;;7.03;4.92;;;;;;;-1.50;100.00;97123.05;1779057;80;21132;-69
2022/01/31 07:49:54;;;;;;;8.53;6.50;;;;;;;-1.44;100.00;97149.75;1783008;79;21478;-69
2022/01/31 07:52:22;;;;;;;4.87;4.47;;;;;;;-1.18;100.00;97167.30;1784241;80;20992;-69
2022/01/31 07:54:49;;;;;;;11.35;7.35;;;;;;;-1.31;100.00;97172.34;1784491;80;20888;-68
2022/01/31 07:57:19;;;;;;;9.08;5.15;;;;;;;-1.44;100.00;97173.95;1784262;80;21418;-67
2022/01/31 07:59:47;;;;;;;8.98;6.17;;;;;;;-1.62;100.00;97175.70;1784359;80;21155;-69
2022/01/31 08:02:14;;;;;;;6.15;5.35;;;;;;;-1.68;100.00;97173.23;1777554;80;20975;-64
2022/01/31 08:04:40;;;;;;;9.65;6.15;;;;;;;-1.74;100.00;97166.55;1785418;78;21003;-68
2022/01/31 08:07:07;;;;;;;6.40;5.15;;;;;;;-1.73;100.00;97176.03;1743260;80;21470;-66
2022/01/31 08:09:34;;;;;;;9.15;6.33;;;;;;;-1.65;100.00;97170.92;1715602;83;21474;-69
2022/01/31 08:12:01;;;;;;;5.12;4.62;;;;;;;-1.54;100.00;97175.36;1716313;82;21161;-68
2022/01/31 08:14:30;;;;;;;8.18;5.03;;;;;;;-1.52;100.00;97179.88;1765456;80;20827;-68
2022/01/31 08:16:57;;;;;;;7.15;5.37;;;;;;;-1.54;100.00;97164.84;1813066;78;20937;-67
2022/01/31 08:19:25;;;;;;;5.62;4.83;;;;;;;-1.53;100.00;97175.63;1803569;78;21442;-68
2022/01/31 08:21:55;;;;;;;5.05;4.10;;;;;;;-1.33;100.00;97179.67;1741047;80;20989;-70
2022/01/31 08:24:21;;;;;;;;;;;;;;;-1.12;100.00;97184.28;1749242;82;21146;-67
2022/01/31 08:26:48;;;;;;;14.87;5.28;;;;;;;-0.88;100.00;97200.77;1738312;82;20099;-65
2022/01/31 08:29:24;;;;;;;7.10;4.80;;;;;;;-0.90;100.00;97188.34;1738355;81;21031;-67
2022/01/31 08:31:52;;;;;;;5.45;4.50;;;;;;;-1.03;100.00;97199.69;1738536;81;21068;-67
2022/01/31 08:36:44;;;;;;;43.98;9.98;;;;;;;-1.02;100.00;97206.56;1746512;82;22308;-66
2022/01/31 08:39:17;;;;;;;14.33;12.53;;;;;;;-0.96;100.00;97205.60;1691976;83;21052;-65
2022/01/31 08:41:47;;;;;;;15.65;13.22;;;;;;;-1.10;100.00;97209.86;1751990;81;21513;-68
2022/01/31 08:44:17;;;;;;;484.50;412.48;;;;;;;-0.96;100.00;97218.77;1752084;81;21487;-67
2022/01/31 08:46:47;;;;;;;115.62;104.30;;;;;;;-0.80;100.00;97210.63;1778472;78;20934;-68
2022/01/31 08:49:15;;;;;;;23.67;21.40;;;;;;;-0.72;100.00;97218.92;1733600;80;21943;-67
2022/01/31 08:51:43;;;;;;;22.05;18.00;;;;;;;-0.72;100.00;97228.15;1728876;82;21505;-68
2022/01/31 08:54:10;;;;;;;9.33;8.33;;;;;;;-0.85;100.00;97231.09;1719802;83;21514;-68
2022/01/31 08:56:43;;;;;;;26.37;15.32;;;;;;;-0.87;100.00;97241.06;1701226;83;21017;-68
2022/01/31 08:59:12;;;;;;;48.90;26.25;;;;;;;-0.92;100.00;97237.02;1699616;84;21005;-70
2022/01/31 09:01:39;;;;;;;22.27;12.00;;;;;;;-0.74;100.00;97245.23;1709619;81;21525;-66
2022/01/31 09:04:08;;;;;;;25.65;13.62;;;;;;;-0.54;100.00;97256.13;1714669;83;21026;-65
2022/01/31 09:06:34;;;;;;;53.85;24.50;;;;;;;-0.28;100.00;97258.64;1714823;83;21009;-62
2022/01/31 09:09:08;;;;;;;83.20;35.90;;;;;;;-0.24;100.00;97257.13;1738982;81;21040;-65
2022/01/31 09:11:37;;;;;;;63.92;31.87;;;;;;;-0.37;100.00;97256.64;1733354;81;21018;-64
2022/01/31 09:14:04;;;;;;;42.43;21.17;;;;;;;-0.30;100.00;97263.88;1729021;81;21224;-67
2022/01/31 09:16:31;;;;;;;35.78;19.00;;;;;;;-0.17;100.00;97270.16;1723396;83;21011;-68
2022/01/31 09:18:58;;;;;;;48.23;22.93;;;;;;;-0.30;100.00;97276.53;1687944;83;21538;-66
2022/01/31 09:21:25;;;;;;;29.52;15.43;;;;;;;-0.27;100.00;97281.34;1714396;83;20991;-62
2022/01/31 09:23:53;;;;;;;45.03;20.70;;;;;;;-0.39;100.00;97287.20;1673169;84;20948;-68
2022/01/31 09:26:22;;;;;;;48.87;22.37;;;;;;;-0.30;100.00;97292.34;1655857;85;21257;-66
2022/01/31 09:28:51;;;;;;;63.20;31.02;;;;;;;-0.47;100.00;97278.35;1695173;83;21685;-70
2022/01/31 09:31:18;;;;;;;28.70;15.72;;;;;;;-0.51;100.00;97284.63;1729664;81;20918;-68
2022/01/31 09:33:47;;;;;;;12.30;8.75;;;;;;;-0.58;100.00;97291.09;1722230;82;20992;-64
2022/01/31 09:36:14;;;;;;;26.82;13.35;;;;;;;-0.57;100.00;97280.30;1707452;81;21048;-67
2022/01/31 09:38:41;;;;;;;64.87;30.80;;;;;;;-0.65;100.00;97295.98;1709422;83;21177;-69
2022/01/31 09:41:10;;;;;;;10.10;6.33;;;;;;;-0.57;100.00;97292.68;1693872;83;21559;-67
2022/01/31 09:48:56;;;;;;;48.15;21.25;;;;;;;-0.75;100.00;97300.28;1687906;83;21009;-66
2022/01/31 09:51:26;;;;;;;33.00;15.78;;;;;;;-0.83;100.00;97290.10;1714732;83;21873;-69
2022/01/31 09:54:00;;;;;;;67.17;27.80;;;;;;;-0.85;100.00;97307.47;1698621;82;21016;-71
2022/01/31 09:56:31;;;;;;;78.35;29.57;;;;;;;-0.84;100.00;97319.59;1715068;82;21028;-67
2022/01/31 09:58:58;;;;;;;33.90;15.18;;;;;;;-0.82;100.00;97325.44;1688652;82;21004;-66
2022/01/31 10:01:35;;;;;;;23.70;13.55;;;;;;;-0.78;100.00;97312.61;1702579;83;21032;-67
2022/01/31 10:04:09;;;;;;;37.75;21.70;;;;;;;-0.77;100.00;97318.94;1751519;80;21113;-63
2022/01/31 10:06:38;;;;;;;17.57;11.18;;;;;;;-0.66;100.00;97313.36;1765205;79;21577;-65
2022/01/31 10:09:17;;;;;;;53.30;28.17;;;;;;;-0.56;100.00;97319.33;1776572;79;21020;-65
2022/01/31 10:12:10;;;;;;;14.63;9.58;;;;;;;-0.66;100.00;97312.84;1777379;80;21491;-66
2022/01/31 10:17:34;;;;;;;19.87;13.28;;;;;;;-0.46;100.00;97328.73;1746677;81;21844;-66
2022/01/31 10:20:18;;;;;;;7.50;6.20;;;;;;;-0.36;100.00;97323.63;1777039;79;20951;-71
2022/01/31 10:22:44;;;;;;;9.03;6.22;;;;;;;-0.35;100.00;97325.21;1787648;79;20916;-67
2022/01/31 10:25:17;;;;;;;9.93;7.15;;;;;;;-0.42;100.00;97326.41;1789894;79;21561;-64
2022/01/31 10:27:47;;;;;;;24.30;12.58;;;;;;;-0.41;100.00;97323.55;1774434;79;20921;-65
2022/01/31 10:30:23;;;;;;;17.87;10.28;;;;;;;-0.42;100.00;97329.83;1764794;81;21063;-66
2022/01/31 10:32:52;;;;;;;18.75;11.20;;;;;;;-0.55;100.00;97334.09;1796777;79;21483;-68
2022/01/31 10:35:25;;;;;;;22.95;13.88;;;;;;;-0.52;100.00;97337.56;1787641;79;20993;-66
2022/01/31 10:38:01;;;;;;;9.35;5.90;;;;;;;-0.67;100.00;97345.47;1778338;79;21027;-69
2022/01/31 10:46:04;;;;;;;;;;;;;;;-0.84;100.00;97334.61;1803780;79;20906;-69
2022/01/31 10:54:24;;;;;;;16.65;9.28;;;;;;;-0.54;100.00;97349.67;1787862;79;21020;-65
2022/01/31 10:56:57;;;;;;;12.07;8.05;;;;;;;-0.45;100.00;97359.30;1776530;79;21096;-69
2022/01/31 10:59:37;;;;;;;25.27;13.00;;;;;;;-0.34;100.00;97355.00;1766850;79;20946;-67
2022/01/31 11:02:08;;;;;;;74.10;46.40;;;;;;;-0.46;100.00;97362.98;1762224;79;21072;-68
2022/01/31 11:04:40;;;;;;;12.90;6.22;;;;;;;-0.28;100.00;97366.73;1739225;81;21197;-67
2022/01/31 11:07:10;;;;;;;6.30;5.72;;;;;;;-0.43;100.00;97367.78;1765477;80;20951;-61
2022/01/31 11:09:41;;;;;;;5.35;4.83;;;;;;;-0.46;100.00;97369.05;1786436;80;21822;-66
2022/01/31 11:12:10;;;;;;;5.47;4.97;;;;;;;-0.36;100.00;97372.39;1757934;81;21395;-65
2022/01/31 11:14:41;;;;;;;25.92;9.35;;;;;;;-0.42;100.00;97378.59;1756194;81;20947;-66
2022/01/31 11:17:14;;;;;;;10.72;9.80;;;;;;;-0.49;100.00;97369.53;1767273;81;21002;-65
2022/01/31 11:19:43;;;;;;;25.77;23.75;;;;;;;-0.59;100.00;97346.13;1768274;81;20941;-66
2022/01/31 11:22:12;;;;;;;168.87;153.60;;;;;;;-0.62;100.00;97338.70;1766114;79;22275;-67
2022/01/31 11:24:58;;;;;;;22.05;20.08;;;;;;;-0.58;100.00;97366.19;1765296;80;21810;-65
2022/01/31 11:27:26;;;;;;;8.00;7.40;;;;;;;-0.67;100.00;97363.91;1762189;80;20904;-68
2022/01/31 11:29:55;;;;;;;26.52;20.72;;;;;;;-0.77;100.00;97370.83;1745338;80;21534;-66
2022/01/31 11:32:24;;;;;;;24.50;19.80;;;;;;;-0.75;100.00;97375.36;1745509;82;21115;-67
2022/01/31 11:34:51;;;;;;;;;;;;;;;-0.77;100.00;97380.84;1756331;81;21896;-66
2022/01/31 11:37:21;;;;;;;40.03;24.72;;;;;;;-0.70;100.00;97376.25;1762191;81;20100;-65
2022/01/31 11:39:54;;;;;;;134.50;75.30;;;;;;;-0.55;100.00;97381.52;1759103;81;20936;-64
2022/01/31 11:42:21;;;;;;;30.62;16.30;;;;;;;-0.56;100.00;97377.30;1755788;81;20998;-66
2022/01/31 11:45:20;;;;;;;47.85;25.32;;;;;;;-0.59;100.00;97377.23;1761975;80;21015;-66
2022/01/31 11:47:49;;;;;;;62.93;28.98;;;;;;;-0.62;100.00;97363.73;1760395;80;21182;-66